createdAt,value
2019-05-25T00:01:27.543Z,100040.28
2019-05-25T00:03:02.356Z,100043.55
2019-05-25T00:04:37.676Z,100038.58
2019-05-25T00:06:12.788Z,100038.65
2019-05-25T00:07:47.759Z,100029.83
2019-05-25T00:09:22.187Z,100029.73
2019-05-25T00:10:57.374Z,100034.29
2019-05-25T00:12:31.899Z,100030.20
2019-05-25T00:14:06.943Z,100038.24
2019-05-25T00:15:41.612Z,100033.42
2019-05-25T00:17:16.610Z,100033.29
2019-05-25T00:18:51.021Z,100027.94
2019-05-25T00:20:26.275Z,100029.61
2019-05-25T00:22:00.994Z,100035.27
2019-05-25T00:23:35.957Z,100036.61
2019-05-25T00:25:10.546Z,100037.23
2019-05-25T00:26:45.766Z,100029.94
2019-05-25T00:28:20.966Z,100032.03
2019-05-25T00:29:55.940Z,100024.88
2019-05-25T00:31:30.334Z,100032.77
2019-05-25T00:33:05.744Z,100031.00
2019-05-25T00:34:40.144Z,100029.74
2019-05-25T00:36:15.102Z,100030.05
2019-05-25T00:37:49.517Z,100030.43
2019-05-25T00:39:24.538Z,100026.15
2019-05-25T00:40:59.201Z,100025.21
2019-05-25T00:42:34.232Z,100026.78
2019-05-25T00:44:08.739Z,100027.60
2019-05-25T00:45:43.697Z,100034.30
2019-05-25T00:47:18.147Z,100032.81
2019-05-25T00:48:53.487Z,100035.67
2019-05-25T00:50:27.899Z,100023.68
2019-05-25T00:52:03.120Z,100028.13
2019-05-25T00:53:37.923Z,100023.04
2019-05-25T00:55:13.126Z,100029.25
2019-05-25T00:56:47.627Z,100027.63
2019-05-25T00:58:22.610Z,100021.15
2019-05-25T00:59:57.079Z,100029.41
2019-05-25T01:01:32.049Z,100027.52
2019-05-25T01:03:06.487Z,100030.72
2019-05-25T01:04:41.574Z,100028.61
2019-05-25T01:06:16.158Z,100026.39
2019-05-25T01:07:51.432Z,100031.83
2019-05-25T01:09:26.116Z,100029.03
2019-05-25T01:11:01.302Z,100030.09
2019-05-25T01:12:35.767Z,100038.31
2019-05-25T01:14:10.742Z,100036.48
2019-05-25T01:15:45.207Z,100036.02
2019-05-25T01:17:20.428Z,100036.38
2019-05-25T01:18:55.122Z,100033.69
2019-05-25T01:20:30.218Z,100031.17
2019-05-25T01:22:04.923Z,100032.39
2019-05-25T01:23:39.902Z,100026.27
2019-05-25T01:25:14.702Z,100028.53
2019-05-25T01:26:50.091Z,100030.13
2019-05-25T01:28:24.584Z,100028.39
2019-05-25T01:29:59.851Z,100034.16
2019-05-25T01:31:34.487Z,100031.27
2019-05-25T01:33:09.471Z,100033.30
2019-05-25T01:34:43.851Z,100034.39
2019-05-25T01:36:19.174Z,100032.58
2019-05-25T01:37:53.835Z,100031.95
2019-05-25T01:39:28.831Z,100031.66
2019-05-25T01:41:03.547Z,100037.83
2019-05-25T01:42:38.580Z,100024.29
2019-05-25T01:44:13.315Z,100030.36
2019-05-25T01:45:48.376Z,100034.18
2019-05-25T01:47:23.043Z,100038.45
2019-05-25T01:48:58.475Z,100038.48
2019-05-25T01:50:32.873Z,100041.42
2019-05-25T01:52:08.531Z,100044.56
2019-05-25T01:53:43.663Z,100043.75
2019-05-25T01:55:18.732Z,100047.09
2019-05-25T01:56:53.114Z,100049.51
2019-05-25T01:58:28.400Z,100055.81
2019-05-25T02:00:02.881Z,100047.97
2019-05-25T02:01:38.162Z,100052.03
2019-05-25T02:03:12.835Z,100053.77
2019-05-25T02:04:48.086Z,100054.68
2019-05-25T02:06:22.563Z,100056.77
2019-05-25T02:07:57.770Z,100052.66
2019-05-25T02:09:32.615Z,100055.34
2019-05-25T02:11:07.855Z,100059.89
2019-05-25T02:12:42.306Z,100055.91
2019-05-25T02:14:17.275Z,100056.54
2019-05-25T02:15:52.324Z,100064.39
2019-05-25T02:17:27.299Z,100067.14
2019-05-25T02:19:01.789Z,100069.12
2019-05-25T02:20:36.843Z,100066.84
2019-05-25T02:22:11.228Z,100061.33
2019-05-25T02:23:46.205Z,100065.36
2019-05-25T02:25:20.750Z,100064.98
2019-05-25T02:26:56.443Z,100070.52
2019-05-25T02:28:31.158Z,100066.97
2019-05-25T02:30:07.155Z,100076.31
2019-05-25T02:31:41.879Z,100072.62
2019-05-25T02:33:17.214Z,100075.11
2019-05-25T02:34:51.945Z,100077.92
2019-05-25T02:36:26.877Z,100078.48
2019-05-25T02:38:01.237Z,100075.87
2019-05-25T02:39:36.175Z,100076.87
2019-05-25T02:41:10.603Z,100069.39
2019-05-25T02:42:45.563Z,100073.67
2019-05-25T02:44:19.939Z,100076.20
2019-05-25T02:45:54.858Z,100079.90
2019-05-25T02:47:29.595Z,100069.78
2019-05-25T02:49:04.833Z,100077.63
2019-05-25T02:50:39.183Z,100075.00
2019-05-25T02:52:14.150Z,100073.17
2019-05-25T02:53:48.774Z,100070.07
2019-05-25T02:55:33.816Z,100072.77
2019-05-25T02:57:00.415Z,100068.40
2019-05-25T02:58:35.377Z,100075.14
2019-05-25T03:00:11.896Z,100067.89
2019-05-25T03:01:46.922Z,100071.78
2019-05-25T03:03:21.550Z,100076.38
2019-05-25T03:04:56.842Z,100079.73
2019-05-25T03:06:31.837Z,100085.31
2019-05-25T03:08:07.374Z,100086.77
2019-05-25T03:09:43.049Z,100086.88
2019-05-25T03:11:18.904Z,100083.45
2019-05-25T03:12:55.138Z,100084.94
2019-05-25T03:14:30.065Z,100082.66
2019-05-25T03:16:04.573Z,100090.38
2019-05-25T03:17:39.838Z,100086.69
2019-05-25T03:19:14.554Z,100091.95
2019-05-25T03:20:49.791Z,100096.20
2019-05-25T03:22:24.533Z,100094.14
2019-05-25T03:23:59.762Z,100097.27
2019-05-25T03:25:48.658Z,100104.72
2019-05-25T03:27:10.827Z,100095.91
2019-05-25T03:28:45.203Z,100099.03
2019-05-25T03:30:30.535Z,100100.66
2019-05-25T03:32:05.566Z,100099.55
2019-05-25T03:33:40.367Z,100100.80
2019-05-25T03:35:15.530Z,100099.75
2019-05-25T03:36:49.882Z,100106.10
2019-05-25T03:38:25.152Z,100112.97
2019-05-25T03:39:59.531Z,100111.89
2019-05-25T03:41:34.748Z,100101.79
2019-05-25T03:43:09.405Z,100112.09
2019-05-25T03:44:44.630Z,100113.77
2019-05-25T03:46:19.022Z,100112.14
2019-05-25T03:47:54.383Z,100112.35
2019-05-25T03:49:29.108Z,100112.28
2019-05-25T03:51:04.117Z,100115.46
2019-05-25T03:52:38.515Z,100122.50
2019-05-25T03:54:13.468Z,100125.09
2019-05-25T03:55:48.067Z,100119.25
2019-05-25T03:57:23.050Z,100112.66
2019-05-25T03:58:58.135Z,100115.74
2019-05-25T04:00:35.304Z,100111.25
2019-05-25T04:02:09.938Z,100119.89
2019-05-25T04:03:44.910Z,100118.77
2019-05-25T04:05:19.266Z,100116.94
2019-05-25T04:06:54.268Z,100113.42
2019-05-25T04:08:28.662Z,100116.14
2019-05-25T04:10:04.125Z,100114.93
2019-05-25T04:11:38.525Z,100109.36
2019-05-25T04:13:13.803Z,100115.58
2019-05-25T04:14:48.260Z,100114.69
2019-05-25T04:16:23.551Z,100122.30
2019-05-25T04:17:57.929Z,100128.59
2019-05-25T04:19:32.950Z,100117.84
2019-05-25T04:21:07.371Z,100121.23
2019-05-25T04:22:42.334Z,100122.79
2019-05-25T04:24:17.902Z,100124.23
2019-05-25T04:25:52.828Z,100113.91
2019-05-25T04:27:27.828Z,100123.84
2019-05-25T04:29:02.841Z,100125.30
2019-05-25T04:30:37.211Z,100121.77
2019-05-25T04:32:12.229Z,100118.64
2019-05-25T04:33:46.768Z,100126.19
2019-05-25T04:35:22.030Z,100124.31
2019-05-25T04:36:56.920Z,100129.21
2019-05-25T04:38:31.848Z,100129.95
2019-05-25T04:40:06.610Z,100129.73
2019-05-25T04:41:41.564Z,100121.38
2019-05-25T04:43:15.964Z,100126.86
2019-05-25T04:44:51.001Z,100126.84
2019-05-25T04:46:25.806Z,100133.86
2019-05-25T04:48:00.821Z,100127.36
2019-05-25T04:49:35.206Z,100134.80
2019-05-25T04:51:10.670Z,100127.98
2019-05-25T04:52:45.585Z,100131.32
2019-05-25T04:54:20.525Z,100123.91
2019-05-25T04:55:55.006Z,100127.63
2019-05-25T04:57:29.973Z,100129.52
2019-05-25T04:59:04.699Z,100124.80
2019-05-25T05:00:39.652Z,100124.93
2019-05-25T05:02:14.654Z,100125.50
2019-05-25T05:03:49.889Z,100132.40
2019-05-25T05:05:24.241Z,100141.55
2019-05-25T05:06:59.513Z,100135.27
2019-05-25T05:08:35.799Z,100136.59
2019-05-25T05:10:12.460Z,100143.38
2019-05-25T05:11:47.178Z,100137.09
2019-05-25T05:13:22.165Z,100140.81
2019-05-25T05:14:56.838Z,100135.52
2019-05-25T05:16:32.120Z,100139.58
2019-05-25T05:18:06.759Z,100146.25
2019-05-25T05:19:41.722Z,100135.07
2019-05-25T05:21:16.423Z,100144.07
2019-05-25T05:22:51.353Z,100138.61
2019-05-25T05:24:25.734Z,100136.88
2019-05-25T05:26:00.951Z,100138.16
2019-05-25T05:27:35.325Z,100137.92
2019-05-25T05:29:10.281Z,100131.53
2019-05-25T05:30:44.665Z,100132.36
2019-05-25T05:32:27.466Z,100134.59
2019-05-25T05:33:56.573Z,100139.19
2019-05-25T05:35:33.533Z,100133.03
2019-05-25T05:37:08.758Z,100133.13
2019-05-25T05:38:44.600Z,100133.27
2019-05-25T05:40:19.050Z,100140.92
2019-05-25T05:41:55.981Z,100139.53
2019-05-25T05:43:31.962Z,100140.91
2019-05-25T05:45:07.572Z,100128.64
2019-05-25T05:46:43.975Z,100131.09
2019-05-25T05:48:21.249Z,100125.53
2019-05-25T05:49:56.555Z,100120.45
2019-05-25T05:51:35.714Z,100120.16
2019-05-25T05:53:10.224Z,100127.28
2019-05-25T05:54:47.622Z,100128.44
2019-05-25T05:56:22.393Z,100133.16
2019-05-25T05:57:57.692Z,100132.22
2019-05-25T05:59:32.046Z,100128.83
2019-05-25T06:01:06.977Z,100126.99
2019-05-25T06:02:41.425Z,100137.33
2019-05-25T06:04:17.191Z,100138.48
2019-05-25T06:05:52.144Z,100127.07
2019-05-25T06:07:28.098Z,100131.11
2019-05-25T06:09:04.956Z,100131.20
2019-05-25T06:10:40.676Z,100137.95
2019-05-25T06:12:15.912Z,100134.52
2019-05-25T06:13:51.575Z,100138.80
2019-05-25T06:15:26.556Z,100140.48
2019-05-25T06:17:02.221Z,100142.28
2019-05-25T06:18:37.722Z,100136.52
2019-05-25T06:20:13.413Z,100127.34
2019-05-25T06:21:48.100Z,100125.50
2019-05-25T06:23:23.104Z,100124.72
2019-05-25T06:24:57.826Z,100127.36
2019-05-25T06:26:33.086Z,100129.13
2019-05-25T06:28:07.789Z,100129.89
2019-05-25T06:29:43.855Z,100129.24
2019-05-25T06:31:19.209Z,100130.58
2019-05-25T06:32:54.823Z,100130.84
2019-05-25T06:34:30.051Z,100125.55
2019-05-25T06:36:11.779Z,100129.59
2019-05-25T06:37:47.109Z,100131.13
2019-05-25T06:39:22.610Z,100134.10
2019-05-25T06:40:58.489Z,100136.46
2019-05-25T06:42:34.765Z,100132.56
2019-05-25T06:44:10.066Z,100131.16
2019-05-25T06:45:45.946Z,100133.61
2019-05-25T06:47:21.254Z,100133.39
2019-05-25T06:48:56.983Z,100136.02
2019-05-25T06:50:32.078Z,100141.04
2019-05-25T06:52:07.975Z,100132.19
2019-05-25T06:53:43.316Z,100141.31
2019-05-25T06:55:19.465Z,100136.87
2019-05-25T06:56:54.531Z,100142.20
2019-05-25T06:58:29.884Z,100136.92
2019-05-25T07:00:04.965Z,100138.71
2019-05-25T07:01:39.913Z,100136.59
2019-05-25T07:03:15.182Z,100146.05
2019-05-25T07:04:50.457Z,100140.95
2019-05-25T07:06:25.317Z,100133.75
2019-05-25T07:08:01.202Z,100139.52
2019-05-25T07:09:35.814Z,100150.38
2019-05-25T07:11:11.174Z,100151.41
2019-05-25T07:12:45.953Z,100155.25
2019-05-25T07:14:21.655Z,100153.86
2019-05-25T07:15:56.293Z,100145.64
2019-05-25T07:17:31.235Z,100148.31
2019-05-25T07:19:05.730Z,100147.00
2019-05-25T07:20:40.703Z,100150.63
2019-05-25T07:22:15.192Z,100161.72
2019-05-25T07:23:50.985Z,100158.02
2019-05-25T07:25:25.701Z,100157.81
2019-05-25T07:27:00.636Z,100159.26
2019-05-25T07:28:35.182Z,100167.28
2019-05-25T07:30:12.852Z,100164.30
2019-05-25T07:31:48.123Z,100159.25
2019-05-25T07:33:24.268Z,100167.97
2019-05-25T07:34:59.230Z,100162.35
2019-05-25T07:36:34.605Z,100165.38
2019-05-25T07:38:10.474Z,100155.93
2019-05-25T07:39:46.222Z,100160.36
2019-05-25T07:41:21.483Z,100162.23
2019-05-25T07:42:56.429Z,100163.17
2019-05-25T07:44:31.052Z,100160.09
2019-05-25T07:46:06.488Z,100154.69
2019-05-25T07:47:41.955Z,100153.48
2019-05-25T07:49:16.918Z,100154.56
2019-05-25T07:50:51.267Z,100161.22
2019-05-25T07:52:26.806Z,100158.95
2019-05-25T07:54:01.754Z,100151.23
2019-05-25T07:55:37.260Z,100154.58
2019-05-25T07:57:11.705Z,100158.64
2019-05-25T07:58:47.644Z,100171.84
2019-05-25T08:00:22.338Z,100168.03
2019-05-25T08:01:57.537Z,100162.85
2019-05-25T08:03:31.897Z,100166.11
2019-05-25T08:05:06.929Z,100165.42
2019-05-25T08:06:41.686Z,100176.27
2019-05-25T08:08:16.656Z,100179.81
2019-05-25T08:09:51.430Z,100180.27
2019-05-25T08:11:26.372Z,100186.11
2019-05-25T08:13:01.120Z,100180.03
2019-05-25T08:14:36.393Z,100182.00
2019-05-25T08:16:10.813Z,100174.86
2019-05-25T08:17:45.820Z,100173.03
2019-05-25T08:19:20.884Z,100170.50
2019-05-25T08:20:56.435Z,100177.67
2019-05-25T08:22:31.547Z,100179.66
2019-05-25T08:24:06.928Z,100179.09
2019-05-25T08:25:42.016Z,100174.55
2019-05-25T08:27:20.599Z,100168.75
2019-05-25T08:28:55.666Z,100162.53
2019-05-25T08:30:31.483Z,100169.49
2019-05-25T08:32:06.303Z,100163.23
2019-05-25T08:33:42.172Z,100167.64
2019-05-25T08:35:17.760Z,100167.69
2019-05-25T08:36:53.736Z,100167.77
2019-05-25T08:38:28.505Z,100164.56
2019-05-25T08:40:04.275Z,100168.13
2019-05-25T08:41:39.581Z,100170.56
2019-05-25T08:43:15.127Z,100169.20
2019-05-25T08:44:50.146Z,100167.66
2019-05-25T08:46:25.954Z,100173.33
2019-05-25T08:48:00.827Z,100162.89
2019-05-25T08:49:36.626Z,100157.59
2019-05-25T08:51:11.390Z,100159.73
2019-05-25T08:52:46.961Z,100156.75
2019-05-25T08:54:21.989Z,100152.86
2019-05-25T08:55:58.033Z,100161.20
2019-05-25T08:57:33.052Z,100161.73
2019-05-25T08:59:08.632Z,100158.87
2019-05-25T09:00:43.009Z,100156.49
2019-05-25T09:02:17.950Z,100164.78
2019-05-25T09:03:52.545Z,100160.11
2019-05-25T09:05:27.510Z,100166.73
2019-05-25T09:07:01.882Z,100162.17
2019-05-25T09:08:37.085Z,100156.50
2019-05-25T09:10:13.806Z,100164.01
2019-05-25T09:11:48.746Z,100162.32
2019-05-25T09:13:23.449Z,100167.25
2019-05-25T09:14:58.374Z,100163.09
2019-05-25T09:16:32.729Z,100165.61
2019-05-25T09:18:07.687Z,100158.64
2019-05-25T09:19:42.417Z,100155.95
2019-05-25T09:21:17.978Z,100163.84
2019-05-25T09:22:53.315Z,100164.99
2019-05-25T09:24:28.871Z,100160.53
2019-05-25T09:26:03.641Z,100161.08
2019-05-25T09:27:39.450Z,100160.38
2019-05-25T09:29:14.243Z,100159.05
2019-05-25T09:30:50.065Z,100160.91
2019-05-25T09:32:24.871Z,100158.42
2019-05-25T09:34:00.674Z,100157.48
2019-05-25T09:35:35.462Z,100156.05
2019-05-25T09:37:11.693Z,100152.72
2019-05-25T09:38:46.535Z,100155.42
2019-05-25T09:40:22.183Z,100156.51
2019-05-25T09:41:57.239Z,100157.02
2019-05-25T09:43:34.009Z,100155.58
2019-05-25T09:45:14.062Z,100156.78
2019-05-25T09:46:47.798Z,100149.41
2019-05-25T09:48:22.817Z,100159.56
2019-05-25T09:49:59.005Z,100153.75
2019-05-25T09:51:33.385Z,100154.77
2019-05-25T09:53:08.679Z,100157.05
2019-05-25T09:54:43.027Z,100150.52
2019-05-25T09:56:18.248Z,100159.29
2019-05-25T09:57:52.854Z,100163.53
2019-05-25T09:59:28.112Z,100162.78
2019-05-25T10:01:02.888Z,100158.53
2019-05-25T10:02:38.502Z,100158.23
2019-05-25T10:04:13.514Z,100160.84
2019-05-25T10:05:49.140Z,100161.13
2019-05-25T10:07:24.083Z,100163.63
2019-05-25T10:08:59.707Z,100157.14
2019-05-25T10:10:34.670Z,100160.17
2019-05-25T10:12:09.663Z,100157.22
2019-05-25T10:13:44.295Z,100159.45
2019-05-25T10:15:19.641Z,100162.70
2019-05-25T10:16:54.583Z,100152.66
2019-05-25T10:18:30.412Z,100162.97
2019-05-25T10:20:06.140Z,100154.62
2019-05-25T10:21:41.740Z,100157.75
2019-05-25T10:23:16.522Z,100158.14
2019-05-25T10:24:55.466Z,100155.51
2019-05-25T10:26:30.239Z,100156.30
2019-05-25T10:28:06.284Z,100157.75
2019-05-25T10:29:41.329Z,100153.36
2019-05-25T10:31:17.164Z,100153.15
2019-05-25T10:32:52.213Z,100151.17
2019-05-25T10:34:27.764Z,100152.08
2019-05-25T10:36:02.573Z,100151.81
2019-05-25T10:37:38.523Z,100148.94
2019-05-25T10:39:13.549Z,100146.25
2019-05-25T10:40:49.120Z,100148.86
2019-05-25T10:42:24.146Z,100149.66
2019-05-25T10:43:59.694Z,100147.40
2019-05-25T10:45:34.759Z,100155.50
2019-05-25T10:47:10.326Z,100157.16
2019-05-25T10:48:44.729Z,100156.38
2019-05-25T10:50:20.705Z,100158.50
2019-05-25T10:51:55.976Z,100155.06
2019-05-25T10:53:31.330Z,100159.14
2019-05-25T10:55:06.600Z,100153.26
2019-05-25T10:56:41.829Z,100154.75
2019-05-25T10:58:17.085Z,100152.45
2019-05-25T10:59:53.568Z,100146.77
2019-05-25T11:01:28.653Z,100145.20
2019-05-25T11:03:04.539Z,100150.38
2019-05-25T11:04:39.333Z,100144.28
2019-05-25T11:06:14.627Z,100145.25
2019-05-25T11:07:49.066Z,100147.88
2019-05-25T11:09:24.399Z,100145.70
2019-05-25T11:10:59.457Z,100144.92
2019-05-25T11:12:34.810Z,100143.29
2019-05-25T11:14:10.036Z,100143.09
2019-05-25T11:15:45.469Z,100140.83
2019-05-25T11:17:20.539Z,100137.70
2019-05-25T11:18:55.933Z,100135.86
2019-05-25T11:20:31.215Z,100138.72
2019-05-25T11:22:06.758Z,100132.06
2019-05-25T11:23:41.984Z,100140.89
2019-05-25T11:25:18.890Z,100138.87
2019-05-25T11:26:53.862Z,100127.47
2019-05-25T11:28:29.241Z,100128.70
2019-05-25T11:30:09.128Z,100135.08
2019-05-25T11:31:41.705Z,100140.52
2019-05-25T11:33:17.193Z,100136.45
2019-05-25T11:34:52.871Z,100135.44
2019-05-25T11:36:27.253Z,100133.77
2019-05-25T11:38:02.233Z,100132.26
2019-05-25T11:39:37.372Z,100135.61
2019-05-25T11:41:12.929Z,100132.53
2019-05-25T11:42:47.707Z,100133.00
2019-05-25T11:44:23.534Z,100137.64
2019-05-25T11:45:58.298Z,100135.80
2019-05-25T11:47:33.854Z,100136.66
2019-05-25T11:49:21.746Z,100141.06
2019-05-25T11:50:46.180Z,100143.11
2019-05-25T11:52:20.971Z,100143.01
2019-05-25T11:53:56.804Z,100141.15
2019-05-25T11:55:31.833Z,100138.86
2019-05-25T11:57:07.406Z,100141.22
2019-05-25T11:58:47.342Z,100145.84
2019-05-25T12:00:25.765Z,100142.04
2019-05-25T12:01:57.571Z,100142.66
2019-05-25T12:03:32.549Z,100138.62
2019-05-25T12:05:08.216Z,100135.72
2019-05-25T12:06:43.428Z,100132.33
2019-05-25T12:08:17.856Z,100133.66
2019-05-25T12:09:53.205Z,100143.79
2019-05-25T12:11:28.238Z,100141.28
2019-05-25T12:13:03.863Z,100143.09
2019-05-25T12:14:39.069Z,100144.45
2019-05-25T12:16:14.780Z,100141.79
2019-05-25T12:17:49.965Z,100134.52
2019-05-25T12:19:25.452Z,100138.93
2019-05-25T12:21:00.696Z,100135.77
2019-05-25T12:22:36.842Z,100137.88
2019-05-25T12:24:12.063Z,100138.22
2019-05-25T12:25:47.673Z,100134.31
2019-05-25T12:27:22.701Z,100133.30
2019-05-25T12:28:58.299Z,100135.92
2019-05-25T12:30:40.989Z,100131.94
2019-05-25T12:32:10.526Z,100134.11
2019-05-25T12:33:45.484Z,100134.58
2019-05-25T12:35:21.318Z,100141.77
2019-05-25T12:36:55.739Z,100140.48
2019-05-25T12:38:30.682Z,100129.30
2019-05-25T12:40:06.256Z,100119.91
2019-05-25T12:41:42.371Z,100125.08
2019-05-25T12:43:17.143Z,100125.13
2019-05-25T12:44:52.957Z,100123.77
2019-05-25T12:46:27.741Z,100125.53
2019-05-25T12:48:03.281Z,100115.32
2019-05-25T12:49:49.929Z,100121.59
2019-05-25T12:51:17.709Z,100124.36
2019-05-25T12:52:52.216Z,100126.96
2019-05-25T12:54:27.262Z,100117.75
2019-05-25T12:56:02.047Z,100118.19
2019-05-25T12:57:37.328Z,100111.43
2019-05-25T12:59:11.818Z,100105.51
2019-05-25T13:00:55.675Z,100102.29
2019-05-25T13:02:23.290Z,100095.46
2019-05-25T13:03:58.241Z,100095.91
2019-05-25T13:05:34.494Z,100102.99
2019-05-25T13:07:09.789Z,100101.74
2019-05-25T13:08:44.430Z,100087.00
2019-05-25T13:10:19.717Z,100083.31
2019-05-25T13:11:54.161Z,100097.40
2019-05-25T13:13:29.470Z,100100.09
2019-05-25T13:15:04.438Z,100094.53
2019-05-25T13:16:39.378Z,100090.95
2019-05-25T13:18:13.804Z,100097.29
2019-05-25T13:19:49.086Z,100100.41
2019-05-25T13:21:23.721Z,100092.72
2019-05-25T13:22:58.654Z,100093.55
2019-05-25T13:24:33.020Z,100092.44
2019-05-25T13:26:08.192Z,100085.89
2019-05-25T13:27:42.763Z,100085.81
2019-05-25T13:29:17.688Z,100089.93
2019-05-25T13:30:52.103Z,100084.09
2019-05-25T13:32:27.567Z,100090.27
2019-05-25T13:34:02.207Z,100092.59
2019-05-25T13:35:37.172Z,100092.70
2019-05-25T13:37:11.819Z,100088.30
2019-05-25T13:38:46.766Z,100082.24
2019-05-25T13:40:21.448Z,100082.01
2019-05-25T13:41:56.899Z,100083.51
2019-05-25T13:43:31.301Z,100079.50
2019-05-25T13:45:06.745Z,100077.61
2019-05-25T13:46:41.162Z,100086.65
2019-05-25T13:48:16.739Z,100087.34
2019-05-25T13:49:51.239Z,100088.42
2019-05-25T13:51:26.628Z,100092.27
2019-05-25T13:53:01.018Z,100092.75
2019-05-25T13:54:36.418Z,100092.84
2019-05-25T13:56:10.864Z,100097.59
2019-05-25T13:57:46.551Z,100102.13
2019-05-25T13:59:21.536Z,100101.11
2019-05-25T14:00:56.888Z,100099.40
2019-05-25T14:02:32.120Z,100102.33
2019-05-25T14:04:07.503Z,100101.45
2019-05-25T14:05:42.460Z,100099.23
2019-05-25T14:07:17.439Z,100098.67
2019-05-25T14:08:51.809Z,100103.69
2019-05-25T14:10:27.216Z,100101.00
2019-05-25T14:12:01.847Z,100103.50
2019-05-25T14:13:36.881Z,100098.59
2019-05-25T14:15:11.506Z,100097.77
2019-05-25T14:16:46.495Z,100097.15
2019-05-25T14:18:21.082Z,100102.78
2019-05-25T14:19:56.032Z,100100.53
2019-05-25T14:21:30.737Z,100095.47
2019-05-25T14:23:05.794Z,100104.63
2019-05-25T14:24:40.782Z,100103.42
2019-05-25T14:26:16.367Z,100107.84
2019-05-25T14:27:51.123Z,100095.56
2019-05-25T14:29:26.906Z,100097.86
2019-05-25T14:31:01.683Z,100094.55
2019-05-25T14:32:37.263Z,100094.47
2019-05-25T14:34:12.015Z,100095.58
2019-05-25T14:35:48.105Z,100102.32
2019-05-25T14:37:23.088Z,100100.98
2019-05-25T14:38:58.666Z,100096.33
2019-05-25T14:40:33.471Z,100097.52
2019-05-25T14:42:09.656Z,100098.25
2019-05-25T14:43:44.441Z,100097.91
2019-05-25T14:45:21.226Z,100093.48
2019-05-25T14:46:56.255Z,100100.82
2019-05-25T14:48:31.893Z,100099.53
2019-05-25T14:50:07.904Z,100096.95
2019-05-25T14:51:43.753Z,100097.84
2019-05-25T14:53:18.815Z,100097.06
2019-05-25T14:54:54.621Z,100093.92
2019-05-25T14:56:29.376Z,100095.63
2019-05-25T14:58:05.333Z,100099.84
2019-05-25T14:59:40.413Z,100095.50
2019-05-25T15:01:15.962Z,100097.48
2019-05-25T15:02:50.729Z,100098.02
2019-05-25T15:04:26.555Z,100098.80
2019-05-25T15:06:01.643Z,100095.50
2019-05-25T15:07:37.471Z,100092.45
2019-05-25T15:09:12.361Z,100095.66
2019-05-25T15:10:47.911Z,100097.41
2019-05-25T15:12:22.953Z,100105.81
2019-05-25T15:13:58.762Z,100098.36
2019-05-25T15:15:33.622Z,100100.63
2019-05-25T15:17:09.652Z,100099.80
2019-05-25T15:18:44.645Z,100100.05
2019-05-25T15:20:20.454Z,100098.23
2019-05-25T15:21:55.359Z,100095.38
2019-05-25T15:23:30.882Z,100093.66
2019-05-25T15:25:06.941Z,100091.41
2019-05-25T15:26:42.791Z,100090.51
2019-05-25T15:28:17.561Z,100091.86
2019-05-25T15:29:53.176Z,100088.02
2019-05-25T15:31:28.293Z,100087.69
2019-05-25T15:33:04.430Z,100086.00
2019-05-25T15:34:39.192Z,100089.52
2019-05-25T15:36:14.733Z,100087.16
2019-05-25T15:37:49.967Z,100081.05
2019-05-25T15:39:25.529Z,100088.59
2019-05-25T15:41:00.291Z,100079.56
2019-05-25T15:42:35.916Z,100077.91
2019-05-25T15:44:10.671Z,100079.95
2019-05-25T15:45:46.232Z,100081.77
2019-05-25T15:47:21.194Z,100081.33
2019-05-25T15:48:56.549Z,100078.11
2019-05-25T15:50:31.692Z,100076.00
2019-05-25T15:52:07.248Z,100079.58
2019-05-25T15:53:42.466Z,100073.65
2019-05-25T15:55:18.297Z,100079.76
2019-05-25T15:56:53.546Z,100084.90
2019-05-25T15:58:28.811Z,100085.50
2019-05-25T16:00:05.467Z,100079.10
2019-05-25T16:01:41.010Z,100075.97
2019-05-25T16:03:17.798Z,100083.59
2019-05-25T16:04:55.936Z,100084.23
2019-05-25T16:06:30.332Z,100079.80
2019-05-25T16:08:05.346Z,100083.72
2019-05-25T16:09:39.993Z,100086.31
2019-05-25T16:11:15.243Z,100078.56
2019-05-25T16:12:49.890Z,100080.39
2019-05-25T16:14:25.052Z,100086.27
2019-05-25T16:15:59.460Z,100082.67
2019-05-25T16:17:34.505Z,100085.65
2019-05-25T16:19:08.870Z,100079.39
2019-05-25T16:20:43.797Z,100087.27
2019-05-25T16:22:18.176Z,100081.78
2019-05-25T16:23:53.117Z,100083.80
2019-05-25T16:25:27.649Z,100080.31
2019-05-25T16:27:02.852Z,100086.52
2019-05-25T16:28:37.249Z,100089.61
2019-05-25T16:30:12.280Z,100090.02
2019-05-25T16:31:47.047Z,100089.95
2019-05-25T16:33:21.995Z,100088.54
2019-05-25T16:34:56.796Z,100087.17
2019-05-25T16:36:31.980Z,100086.19
2019-05-25T16:38:06.587Z,100095.88
2019-05-25T16:39:41.881Z,100083.44
2019-05-25T16:41:16.499Z,100079.70
2019-05-25T16:42:51.837Z,100079.89
2019-05-25T16:44:26.658Z,100079.04
2019-05-25T16:46:01.914Z,100085.05
2019-05-25T16:47:36.357Z,100082.17
2019-05-25T16:49:11.638Z,100082.44
2019-05-25T16:50:46.366Z,100084.43
2019-05-25T16:52:21.304Z,100090.69
2019-05-25T16:53:55.656Z,100093.72
2019-05-25T16:55:31.244Z,100099.25
2019-05-25T16:57:05.953Z,100108.09
2019-05-25T16:58:41.058Z,100108.95
2019-05-25T17:00:17.347Z,100105.59
2019-05-25T17:01:52.289Z,100109.72
2019-05-25T17:03:28.503Z,100105.66
2019-05-25T17:05:03.761Z,100101.31
2019-05-25T17:06:38.131Z,100108.83
2019-05-25T17:08:13.090Z,100110.58
2019-05-25T17:09:47.467Z,100114.33
2019-05-25T17:11:22.671Z,100111.10
2019-05-25T17:12:57.308Z,100112.84
2019-05-25T17:14:32.527Z,100113.99
2019-05-25T17:16:06.945Z,100111.14
2019-05-25T17:17:41.883Z,100114.83
2019-05-25T17:19:16.495Z,100117.72
2019-05-25T17:20:51.455Z,100115.99
2019-05-25T17:22:26.310Z,100115.21
2019-05-25T17:24:01.339Z,100119.11
2019-05-25T17:25:35.710Z,100119.55
2019-05-25T17:27:10.662Z,100119.91
2019-05-25T17:28:45.035Z,100123.11
2019-05-25T17:30:35.795Z,100123.48
2019-05-25T17:32:11.117Z,100126.57
2019-05-25T17:33:46.661Z,100128.83
2019-05-25T17:35:22.247Z,100125.88
2019-05-25T17:36:56.598Z,100127.03
2019-05-25T17:38:31.584Z,100128.20
2019-05-25T17:40:07.306Z,100133.27
2019-05-25T17:41:42.615Z,100132.57
2019-05-25T17:43:17.542Z,100131.50
2019-05-25T17:44:52.588Z,100137.02
2019-05-25T17:46:27.626Z,100138.56
2019-05-25T17:48:03.277Z,100137.53
2019-05-25T17:49:38.096Z,100133.98
2019-05-25T17:51:13.165Z,100133.11
2019-05-25T17:52:47.923Z,100136.22
2019-05-25T17:54:23.357Z,100138.36
2019-05-25T17:55:57.711Z,100138.07
2019-05-25T17:57:32.750Z,100135.86
2019-05-25T17:59:07.270Z,100133.64
2019-05-25T18:00:45.494Z,100132.39
2019-05-25T18:02:20.131Z,100138.84
2019-05-25T18:04:06.720Z,100138.14
2019-05-25T18:05:32.035Z,100142.58
2019-05-25T18:07:07.527Z,100137.84